sensor_id;sensor_type;location;lat;lon;timestamp;P1;durP1;ratioP1;P2;durP2;ratioP2
30617;SDS011;17384;51.214;9.202;2022-12-18T00:03:59;65.18;;;24.55;;
30617;SDS011;17384;51.214;9.202;2022-12-18T00:06:27;69.05;;;23.02;;
30617;SDS011;17384;51.214;9.202;2022-12-18T00:08:55;78.95;;;23.17;;
30617;SDS011;17384;51.214;9.202;2022-12-18T00:11:23;77.55;;;24.45;;
30617;SDS011;17384;51.214;9.202;2022-12-18T00:13:50;54.47;;;18.05;;
30617;SDS011;17384;51.214;9.202;2022-12-18T00:16:17;48.22;;;18.75;;
30617;SDS011;17384;51.214;9.202;2022-12-18T00:18:45;63.83;;;21.58;;
30617;SDS011;17384;51.214;9.202;2022-12-18T00:21:12;59.28;;;19.45;;
30617;SDS011;17384;51.214;9.202;2022-12-18T00:23:39;60.78;;;21.17;;
30617;SDS011;17384;51.214;9.202;2022-12-18T00:26:07;57.22;;;19.13;;
30617;SDS011;17384;51.214;9.202;2022-12-18T00:28:40;50.60;;;20.38;;
30617;SDS011;17384;51.214;9.202;2022-12-18T00:31:07;52.00;;;18.45;;
30617;SDS011;17384;51.214;9.202;2022-12-18T00:33:34;52.53;;;18.58;;
30617;SDS011;17384;51.214;9.202;2022-12-18T00:36:01;58.38;;;18.92;;
30617;SDS011;17384;51.214;9.202;2022-12-18T00:38:27;54.15;;;20.27;;
30617;SDS011;17384;51.214;9.202;2022-12-18T00:40:53;61.30;;;19.95;;
30617;SDS011;17384;51.214;9.202;2022-12-18T00:43:18;72.63;;;23.17;;
30617;SDS011;17384;51.214;9.202;2022-12-18T00:45:44;62.05;;;21.00;;
30617;SDS011;17384;51.214;9.202;2022-12-18T00:48:10;61.20;;;19.58;;
30617;SDS011;17384;51.214;9.202;2022-12-18T00:50:35;60.17;;;23.67;;
30617;SDS011;17384;51.214;9.202;2022-12-18T00:53:01;72.85;;;23.25;;
30617;SDS011;17384;51.214;9.202;2022-12-18T00:55:26;74.35;;;23.35;;
30617;SDS011;17384;51.214;9.202;2022-12-18T00:57:52;75.10;;;24.42;;
30617;SDS011;17384;51.214;9.202;2022-12-18T01:00:17;71.65;;;23.00;;
30617;SDS011;17384;51.214;9.202;2022-12-18T01:02:43;63.15;;;21.67;;
30617;SDS011;17384;51.214;9.202;2022-12-18T01:05:09;65.35;;;21.58;;
30617;SDS011;17384;51.214;9.202;2022-12-18T01:07:36;71.03;;;22.38;;
30617;SDS011;17384;51.214;9.202;2022-12-18T01:10:01;61.63;;;21.40;;
30617;SDS011;17384;51.214;9.202;2022-12-18T01:12:27;69.70;;;22.45;;
30617;SDS011;17384;51.214;9.202;2022-12-18T01:14:53;74.85;;;21.13;;
30617;SDS011;17384;51.214;9.202;2022-12-18T01:17:18;52.65;;;20.60;;
30617;SDS011;17384;51.214;9.202;2022-12-18T01:19:44;50.20;;;19.40;;
30617;SDS011;17384;51.214;9.202;2022-12-18T01:22:09;53.63;;;17.35;;
30617;SDS011;17384;51.214;9.202;2022-12-18T01:24:35;61.85;;;21.10;;
30617;SDS011;17384;51.214;9.202;2022-12-18T01:27:00;52.10;;;20.42;;
30617;SDS011;17384;51.214;9.202;2022-12-18T01:29:25;59.80;;;21.35;;
30617;SDS011;17384;51.214;9.202;2022-12-18T01:31:54;70.25;;;21.15;;
30617;SDS011;17384;51.214;9.202;2022-12-18T01:34:20;68.00;;;22.23;;
30617;SDS011;17384;51.214;9.202;2022-12-18T01:36:46;64.35;;;24.00;;
30617;SDS011;17384;51.214;9.202;2022-12-18T01:39:13;67.55;;;23.42;;
30617;SDS011;17384;51.214;9.202;2022-12-18T01:41:42;69.20;;;22.70;;
30617;SDS011;17384;51.214;9.202;2022-12-18T01:45:27;65.10;;;24.08;;
30617;SDS011;17384;51.214;9.202;2022-12-18T01:47:43;67.25;;;23.50;;
30617;SDS011;17384;51.214;9.202;2022-12-18T01:50:15;61.60;;;21.40;;
30617;SDS011;17384;51.214;9.202;2022-12-18T01:52:52;66.57;;;21.83;;
30617;SDS011;17384;51.214;9.202;2022-12-18T01:55:21;82.55;;;27.00;;
30617;SDS011;17384;51.214;9.202;2022-12-18T01:57:49;67.60;;;23.95;;
30617;SDS011;17384;51.214;9.202;2022-12-18T02:00:19;60.17;;;21.17;;
30617;SDS011;17384;51.214;9.202;2022-12-18T02:02:46;59.83;;;21.48;;
30617;SDS011;17384;51.214;9.202;2022-12-18T02:05:13;58.17;;;21.23;;
30617;SDS011;17384;51.214;9.202;2022-12-18T02:07:45;61.08;;;21.98;;
30617;SDS011;17384;51.214;9.202;2022-12-18T02:10:24;60.58;;;21.58;;
30617;SDS011;17384;51.214;9.202;2022-12-18T02:13:06;69.13;;;21.48;;
30617;SDS011;17384;51.214;9.202;2022-12-18T02:18:18;68.22;;;21.00;;
30617;SDS011;17384;51.214;9.202;2022-12-18T02:20:52;72.68;;;23.42;;
30617;SDS011;17384;51.214;9.202;2022-12-18T02:28:47;54.75;;;20.30;;
30617;SDS011;17384;51.214;9.202;2022-12-18T02:31:20;62.92;;;21.23;;
30617;SDS011;17384;51.214;9.202;2022-12-18T02:33:49;63.00;;;21.88;;
30617;SDS011;17384;51.214;9.202;2022-12-18T02:36:17;65.00;;;22.50;;
30617;SDS011;17384;51.214;9.202;2022-12-18T02:38:45;45.67;;;18.00;;
30617;SDS011;17384;51.214;9.202;2022-12-18T02:41:11;49.65;;;18.60;;
30617;SDS011;17384;51.214;9.202;2022-12-18T02:43:40;86.25;;;27.13;;
30617;SDS011;17384;51.214;9.202;2022-12-18T02:48:55;78.45;;;26.08;;
30617;SDS011;17384;51.214;9.202;2022-12-18T02:54:21;48.70;;;18.73;;
30617;SDS011;17384;51.214;9.202;2022-12-18T02:57:07;58.25;;;20.58;;
30617;SDS011;17384;51.214;9.202;2022-12-18T03:02:51;58.85;;;21.40;;
30617;SDS011;17384;51.214;9.202;2022-12-18T03:05:27;53.83;;;20.10;;
30617;SDS011;17384;51.214;9.202;2022-12-18T03:07:57;44.75;;;18.40;;
30617;SDS011;17384;51.214;9.202;2022-12-18T03:10:29;58.90;;;19.80;;
30617;SDS011;17384;51.214;9.202;2022-12-18T03:13:02;55.58;;;20.42;;
30617;SDS011;17384;51.214;9.202;2022-12-18T03:15:35;37.65;;;17.02;;
30617;SDS011;17384;51.214;9.202;2022-12-18T03:18:07;49.47;;;17.42;;
30617;SDS011;17384;51.214;9.202;2022-12-18T03:20:40;52.33;;;18.30;;
30617;SDS011;17384;51.214;9.202;2022-12-18T03:23:12;45.70;;;17.88;;
30617;SDS011;17384;51.214;9.202;2022-12-18T03:25:46;58.45;;;19.67;;
30617;SDS011;17384;51.214;9.202;2022-12-18T03:28:17;56.10;;;20.75;;
30617;SDS011;17384;51.214;9.202;2022-12-18T03:30:45;61.95;;;21.27;;
30617;SDS011;17384;51.214;9.202;2022-12-18T03:33:19;59.08;;;22.30;;
30617;SDS011;17384;51.214;9.202;2022-12-18T03:35:52;58.38;;;19.85;;
30617;SDS011;17384;51.214;9.202;2022-12-18T03:38:17;54.50;;;20.23;;
30617;SDS011;17384;51.214;9.202;2022-12-18T03:41:04;55.15;;;18.55;;
30617;SDS011;17384;51.214;9.202;2022-12-18T03:43:49;51.30;;;18.50;;
30617;SDS011;17384;51.214;9.202;2022-12-18T03:49:11;50.78;;;20.55;;
30617;SDS011;17384;51.214;9.202;2022-12-18T03:51:48;62.20;;;19.33;;
30617;SDS011;17384;51.214;9.202;2022-12-18T03:54:19;59.38;;;21.92;;
30617;SDS011;17384;51.214;9.202;2022-12-18T03:56:47;66.07;;;19.38;;
30617;SDS011;17384;51.214;9.202;2022-12-18T03:59:16;54.85;;;20.13;;
30617;SDS011;17384;51.214;9.202;2022-12-18T04:01:45;55.47;;;18.35;;
30617;SDS011;17384;51.214;9.202;2022-12-18T04:04:14;60.72;;;20.00;;
30617;SDS011;17384;51.214;9.202;2022-12-18T04:06:41;63.22;;;21.23;;
30617;SDS011;17384;51.214;9.202;2022-12-18T04:09:10;67.20;;;22.88;;
30617;SDS011;17384;51.214;9.202;2022-12-18T04:11:36;58.08;;;20.10;;
30617;SDS011;17384;51.214;9.202;2022-12-18T04:14:01;51.40;;;19.67;;
30617;SDS011;17384;51.214;9.202;2022-12-18T04:16:27;54.33;;;19.85;;
30617;SDS011;17384;51.214;9.202;2022-12-18T04:18:53;66.93;;;20.75;;
30617;SDS011;17384;51.214;9.202;2022-12-18T04:21:19;65.35;;;20.75;;
30617;SDS011;17384;51.214;9.202;2022-12-18T04:23:45;64.13;;;20.17;;
30617;SDS011;17384;51.214;9.202;2022-12-18T04:26:10;66.18;;;20.90;;
30617;SDS011;17384;51.214;9.202;2022-12-18T04:28:36;68.18;;;18.90;;
30617;SDS011;17384;51.214;9.202;2022-12-18T04:31:02;62.40;;;21.73;;
30617;SDS011;17384;51.214;9.202;2022-12-18T04:33:27;63.15;;;20.58;;
30617;SDS011;17384;51.214;9.202;2022-12-18T04:35:53;60.70;;;20.20;;
30617;SDS011;17384;51.214;9.202;2022-12-18T04:38:18;73.25;;;21.25;;
30617;SDS011;17384;51.214;9.202;2022-12-18T04:40:44;71.07;;;22.27;;
30617;SDS011;17384;51.214;9.202;2022-12-18T04:43:09;84.50;;;21.48;;
30617;SDS011;17384;51.214;9.202;2022-12-18T04:45:35;58.78;;;20.75;;
30617;SDS011;17384;51.214;9.202;2022-12-18T04:48:00;69.60;;;22.27;;
30617;SDS011;17384;51.214;9.202;2022-12-18T04:50:28;64.65;;;21.05;;
30617;SDS011;17384;51.214;9.202;2022-12-18T04:52:54;57.97;;;21.50;;
30617;SDS011;17384;51.214;9.202;2022-12-18T04:55:19;61.30;;;20.45;;
30617;SDS011;17384;51.214;9.202;2022-12-18T04:57:45;55.25;;;20.63;;
30617;SDS011;17384;51.214;9.202;2022-12-18T05:00:10;54.83;;;19.45;;
30617;SDS011;17384;51.214;9.202;2022-12-18T05:02:36;57.40;;;19.42;;
30617;SDS011;17384;51.214;9.202;2022-12-18T05:05:02;59.97;;;20.75;;
30617;SDS011;17384;51.214;9.202;2022-12-18T05:07:28;59.80;;;20.77;;
30617;SDS011;17384;51.214;9.202;2022-12-18T05:09:53;72.75;;;21.17;;
30617;SDS011;17384;51.214;9.202;2022-12-18T05:12:19;64.43;;;21.48;;
30617;SDS011;17384;51.214;9.202;2022-12-18T05:14:44;61.30;;;21.48;;
30617;SDS011;17384;51.214;9.202;2022-12-18T05:17:10;57.65;;;19.10;;
30617;SDS011;17384;51.214;9.202;2022-12-18T05:19:35;65.57;;;22.00;;
30617;SDS011;17384;51.214;9.202;2022-12-18T05:22:04;59.58;;;20.90;;
30617;SDS011;17384;51.214;9.202;2022-12-18T05:24:32;56.35;;;19.63;;
30617;SDS011;17384;51.214;9.202;2022-12-18T05:26:57;69.20;;;19.75;;
30617;SDS011;17384;51.214;9.202;2022-12-18T05:29:23;68.80;;;22.60;;
30617;SDS011;17384;51.214;9.202;2022-12-18T05:31:49;72.50;;;22.15;;
30617;SDS011;17384;51.214;9.202;2022-12-18T05:34:14;66.60;;;19.73;;
30617;SDS011;17384;51.214;9.202;2022-12-18T05:36:40;62.13;;;20.83;;
30617;SDS011;17384;51.214;9.202;2022-12-18T05:39:05;58.58;;;20.83;;
30617;SDS011;17384;51.214;9.202;2022-12-18T05:41:31;62.92;;;21.42;;
30617;SDS011;17384;51.214;9.202;2022-12-18T05:43:57;60.58;;;20.00;;
30617;SDS011;17384;51.214;9.202;2022-12-18T05:46:23;64.30;;;20.10;;
30617;SDS011;17384;51.214;9.202;2022-12-18T05:48:49;54.83;;;20.13;;
30617;SDS011;17384;51.214;9.202;2022-12-18T05:51:16;53.03;;;18.33;;
30617;SDS011;17384;51.214;9.202;2022-12-18T05:53:44;54.25;;;18.83;;
30617;SDS011;17384;51.214;9.202;2022-12-18T05:56:17;57.20;;;20.70;;
30617;SDS011;17384;51.214;9.202;2022-12-18T05:58:44;60.03;;;18.58;;
30617;SDS011;17384;51.214;9.202;2022-12-18T06:03:38;55.75;;;18.70;;
30617;SDS011;17384;51.214;9.202;2022-12-18T06:06:04;71.38;;;21.05;;
30617;SDS011;17384;51.214;9.202;2022-12-18T06:08:37;51.33;;;18.23;;
30617;SDS011;17384;51.214;9.202;2022-12-18T06:11:03;49.78;;;17.20;;
30617;SDS011;17384;51.214;9.202;2022-12-18T06:13:28;60.92;;;19.38;;
30617;SDS011;17384;51.214;9.202;2022-12-18T06:15:54;51.60;;;18.83;;
30617;SDS011;17384;51.214;9.202;2022-12-18T06:18:19;59.10;;;21.55;;
30617;SDS011;17384;51.214;9.202;2022-12-18T06:20:45;48.28;;;18.73;;
30617;SDS011;17384;51.214;9.202;2022-12-18T06:23:10;51.00;;;18.80;;
30617;SDS011;17384;51.214;9.202;2022-12-18T06:25:38;53.05;;;18.67;;
30617;SDS011;17384;51.214;9.202;2022-12-18T06:28:04;53.80;;;19.67;;
30617;SDS011;17384;51.214;9.202;2022-12-18T06:30:30;54.20;;;18.52;;
30617;SDS011;17384;51.214;9.202;2022-12-18T06:32:55;50.50;;;18.38;;
30617;SDS011;17384;51.214;9.202;2022-12-18T06:35:21;49.22;;;17.92;;
30617;SDS011;17384;51.214;9.202;2022-12-18T06:37:47;53.88;;;17.48;;
30617;SDS011;17384;51.214;9.202;2022-12-18T06:40:12;52.70;;;18.20;;
30617;SDS011;17384;51.214;9.202;2022-12-18T06:42:38;56.63;;;21.55;;
30617;SDS011;17384;51.214;9.202;2022-12-18T06:45:03;61.88;;;25.17;;
30617;SDS011;17384;51.214;9.202;2022-12-18T06:47:29;59.58;;;24.50;;
30617;SDS011;17384;51.214;9.202;2022-12-18T06:49:55;63.95;;;24.02;;
30617;SDS011;17384;51.214;9.202;2022-12-18T06:52:20;51.63;;;20.33;;
30617;SDS011;17384;51.214;9.202;2022-12-18T06:54:46;50.85;;;19.20;;
30617;SDS011;17384;51.214;9.202;2022-12-18T06:57:11;39.42;;;16.38;;
30617;SDS011;17384;51.214;9.202;2022-12-18T06:59:37;43.95;;;17.08;;
30617;SDS011;17384;51.214;9.202;2022-12-18T07:02:02;42.60;;;16.42;;
30617;SDS011;17384;51.214;9.202;2022-12-18T07:04:28;42.15;;;17.30;;
30617;SDS011;17384;51.214;9.202;2022-12-18T07:06:55;49.88;;;17.58;;
30617;SDS011;17384;51.214;9.202;2022-12-18T07:09:20;57.80;;;17.98;;
30617;SDS011;17384;51.214;9.202;2022-12-18T07:11:46;49.42;;;16.65;;
30617;SDS011;17384;51.214;9.202;2022-12-18T07:14:11;54.60;;;19.15;;
30617;SDS011;17384;51.214;9.202;2022-12-18T07:16:37;49.78;;;19.10;;
30617;SDS011;17384;51.214;9.202;2022-12-18T07:19:02;52.25;;;16.90;;
30617;SDS011;17384;51.214;9.202;2022-12-18T07:21:28;43.10;;;15.77;;
30617;SDS011;17384;51.214;9.202;2022-12-18T07:23:53;49.72;;;17.05;;
30617;SDS011;17384;51.214;9.202;2022-12-18T07:26:19;43.55;;;15.77;;
30617;SDS011;17384;51.214;9.202;2022-12-18T07:28:46;48.15;;;17.05;;
30617;SDS011;17384;51.214;9.202;2022-12-18T07:31:13;49.78;;;16.25;;
30617;SDS011;17384;51.214;9.202;2022-12-18T07:33:40;43.20;;;16.52;;
30617;SDS011;17384;51.214;9.202;2022-12-18T07:36:06;44.13;;;15.43;;
30617;SDS011;17384;51.214;9.202;2022-12-18T07:38:35;43.17;;;16.15;;
30617;SDS011;17384;51.214;9.202;2022-12-18T07:41:01;41.30;;;15.93;;
30617;SDS011;17384;51.214;9.202;2022-12-18T07:43:29;42.50;;;15.18;;
30617;SDS011;17384;51.214;9.202;2022-12-18T07:45:54;43.33;;;15.05;;
30617;SDS011;17384;51.214;9.202;2022-12-18T07:48:20;43.33;;;15.38;;
30617;SDS011;17384;51.214;9.202;2022-12-18T07:50:46;41.00;;;16.15;;
30617;SDS011;17384;51.214;9.202;2022-12-18T07:53:11;47.63;;;16.63;;
30617;SDS011;17384;51.214;9.202;2022-12-18T07:55:37;40.40;;;15.73;;
30617;SDS011;17384;51.214;9.202;2022-12-18T07:58:03;53.95;;;22.77;;
30617;SDS011;17384;51.214;9.202;2022-12-18T08:00:30;79.25;;;26.65;;
30617;SDS011;17384;51.214;9.202;2022-12-18T08:02:56;94.85;;;32.08;;
30617;SDS011;17384;51.214;9.202;2022-12-18T08:05:22;62.95;;;23.48;;
30617;SDS011;17384;51.214;9.202;2022-12-18T08:07:48;70.00;;;23.42;;
30617;SDS011;17384;51.214;9.202;2022-12-18T08:10:14;56.70;;;21.55;;
30617;SDS011;17384;51.214;9.202;2022-12-18T08:12:40;49.67;;;19.58;;
30617;SDS011;17384;51.214;9.202;2022-12-18T08:15:06;48.38;;;18.70;;
30617;SDS011;17384;51.214;9.202;2022-12-18T08:17:32;48.97;;;21.13;;
30617;SDS011;17384;51.214;9.202;2022-12-18T08:19:58;47.47;;;18.98;;
30617;SDS011;17384;51.214;9.202;2022-12-18T08:22:23;57.17;;;20.08;;
30617;SDS011;17384;51.214;9.202;2022-12-18T08:24:50;46.35;;;19.38;;
30617;SDS011;17384;51.214;9.202;2022-12-18T08:27:16;47.17;;;18.23;;
30617;SDS011;17384;51.214;9.202;2022-12-18T08:29:41;56.08;;;20.55;;
30617;SDS011;17384;51.214;9.202;2022-12-18T08:32:07;48.88;;;17.92;;
30617;SDS011;17384;51.214;9.202;2022-12-18T08:34:33;50.55;;;18.60;;
30617;SDS011;17384;51.214;9.202;2022-12-18T08:36:59;48.17;;;19.98;;
30617;SDS011;17384;51.214;9.202;2022-12-18T08:39:24;52.47;;;21.23;;
30617;SDS011;17384;51.214;9.202;2022-12-18T08:41:50;49.10;;;19.50;;
30617;SDS011;17384;51.214;9.202;2022-12-18T08:44:34;53.97;;;20.27;;
30617;SDS011;17384;51.214;9.202;2022-12-18T08:47:03;82.10;;;24.10;;
30617;SDS011;17384;51.214;9.202;2022-12-18T08:49:29;63.80;;;24.92;;
30617;SDS011;17384;51.214;9.202;2022-12-18T08:51:56;64.30;;;23.35;;
30617;SDS011;17384;51.214;9.202;2022-12-18T08:54:24;61.47;;;21.98;;
30617;SDS011;17384;51.214;9.202;2022-12-18T08:56:50;57.90;;;22.23;;
30617;SDS011;17384;51.214;9.202;2022-12-18T08:59:16;53.97;;;20.52;;
30617;SDS011;17384;51.214;9.202;2022-12-18T09:01:43;50.88;;;19.65;;
30617;SDS011;17384;51.214;9.202;2022-12-18T09:04:09;51.20;;;21.10;;
30617;SDS011;17384;51.214;9.202;2022-12-18T09:06:39;50.00;;;19.67;;
30617;SDS011;17384;51.214;9.202;2022-12-18T09:09:05;52.97;;;20.65;;
30617;SDS011;17384;51.214;9.202;2022-12-18T09:11:32;53.20;;;19.83;;
30617;SDS011;17384;51.214;9.202;2022-12-18T09:13:59;55.15;;;21.98;;
30617;SDS011;17384;51.214;9.202;2022-12-18T09:16:26;59.08;;;21.05;;
30617;SDS011;17384;51.214;9.202;2022-12-18T09:18:54;51.50;;;19.95;;
30617;SDS011;17384;51.214;9.202;2022-12-18T09:21:24;55.58;;;21.45;;
30617;SDS011;17384;51.214;9.202;2022-12-18T09:23:52;50.00;;;20.42;;
30617;SDS011;17384;51.214;9.202;2022-12-18T09:26:20;58.40;;;21.33;;
30617;SDS011;17384;51.214;9.202;2022-12-18T09:28:47;50.80;;;20.60;;
30617;SDS011;17384;51.214;9.202;2022-12-18T09:31:13;57.20;;;21.33;;
30617;SDS011;17384;51.214;9.202;2022-12-18T09:33:39;58.05;;;20.98;;
30617;SDS011;17384;51.214;9.202;2022-12-18T09:36:06;54.72;;;20.45;;
30617;SDS011;17384;51.214;9.202;2022-12-18T09:38:33;48.72;;;21.33;;
30617;SDS011;17384;51.214;9.202;2022-12-18T09:41:04;56.40;;;20.73;;
30617;SDS011;17384;51.214;9.202;2022-12-18T09:43:41;51.40;;;20.10;;
30617;SDS011;17384;51.214;9.202;2022-12-18T09:46:16;48.08;;;21.63;;
30617;SDS011;17384;51.214;9.202;2022-12-18T09:48:50;51.63;;;20.58;;
30617;SDS011;17384;51.214;9.202;2022-12-18T09:51:32;47.47;;;18.85;;
30617;SDS011;17384;51.214;9.202;2022-12-18T09:54:06;57.70;;;23.42;;
30617;SDS011;17384;51.214;9.202;2022-12-18T09:56:38;86.18;;;35.15;;
30617;SDS011;17384;51.214;9.202;2022-12-18T09:59:13;64.50;;;27.80;;
30617;SDS011;17384;51.214;9.202;2022-12-18T10:02:25;55.15;;;22.60;;
30617;SDS011;17384;51.214;9.202;2022-12-18T10:05:02;52.17;;;21.23;;
30617;SDS011;17384;51.214;9.202;2022-12-18T10:13:20;44.55;;;21.33;;
30617;SDS011;17384;51.214;9.202;2022-12-18T10:21:50;46.40;;;20.65;;
30617;SDS011;17384;51.214;9.202;2022-12-18T10:27:15;43.42;;;19.90;;
30617;SDS011;17384;51.214;9.202;2022-12-18T10:29:43;46.50;;;19.42;;
30617;SDS011;17384;51.214;9.202;2022-12-18T10:32:14;53.22;;;20.45;;
30617;SDS011;17384;51.214;9.202;2022-12-18T10:34:46;51.42;;;20.38;;
30617;SDS011;17384;51.214;9.202;2022-12-18T10:37:19;48.75;;;21.02;;
30617;SDS011;17384;51.214;9.202;2022-12-18T10:40:04;46.75;;;21.60;;
30617;SDS011;17384;51.214;9.202;2022-12-18T10:42:33;52.47;;;22.42;;
30617;SDS011;17384;51.214;9.202;2022-12-18T10:45:12;56.50;;;23.55;;
30617;SDS011;17384;51.214;9.202;2022-12-18T10:47:43;47.10;;;21.40;;
30617;SDS011;17384;51.214;9.202;2022-12-18T10:50:19;48.17;;;22.17;;
30617;SDS011;17384;51.214;9.202;2022-12-18T10:52:55;43.08;;;19.73;;
30617;SDS011;17384;51.214;9.202;2022-12-18T10:55:22;43.38;;;20.30;;
30617;SDS011;17384;51.214;9.202;2022-12-18T10:57:52;37.67;;;17.90;;
30617;SDS011;17384;51.214;9.202;2022-12-18T11:00:22;45.22;;;20.02;;
30617;SDS011;17384;51.214;9.202;2022-12-18T11:02:53;45.05;;;19.88;;
30617;SDS011;17384;51.214;9.202;2022-12-18T11:05:26;40.65;;;18.38;;
30617;SDS011;17384;51.214;9.202;2022-12-18T11:07:54;42.20;;;18.25;;
30617;SDS011;17384;51.214;9.202;2022-12-18T11:10:21;41.60;;;19.33;;
30617;SDS011;17384;51.214;9.202;2022-12-18T11:12:50;41.10;;;18.83;;
30617;SDS011;17384;51.214;9.202;2022-12-18T11:15:19;50.95;;;21.00;;
30617;SDS011;17384;51.214;9.202;2022-12-18T11:17:47;50.42;;;22.70;;
30617;SDS011;17384;51.214;9.202;2022-12-18T11:20:34;58.40;;;25.50;;
30617;SDS011;17384;51.214;9.202;2022-12-18T11:23:02;57.67;;;23.85;;
30617;SDS011;17384;51.214;9.202;2022-12-18T11:25:31;47.95;;;20.92;;
30617;SDS011;17384;51.214;9.202;2022-12-18T11:28:02;46.25;;;22.20;;
30617;SDS011;17384;51.214;9.202;2022-12-18T11:30:33;70.25;;;33.17;;
30617;SDS011;17384;51.214;9.202;2022-12-18T11:33:13;59.05;;;28.15;;
30617;SDS011;17384;51.214;9.202;2022-12-18T11:38:26;56.35;;;25.40;;
30617;SDS011;17384;51.214;9.202;2022-12-18T11:43:29;58.13;;;24.40;;
30617;SDS011;17384;51.214;9.202;2022-12-18T11:49:12;54.60;;;22.33;;
30617;SDS011;17384;51.214;9.202;2022-12-18T11:51:53;59.03;;;25.00;;
30617;SDS011;17384;51.214;9.202;2022-12-18T11:54:25;49.75;;;23.75;;
30617;SDS011;17384;51.214;9.202;2022-12-18T11:56:53;49.85;;;23.17;;
30617;SDS011;17384;51.214;9.202;2022-12-18T12:05:31;77.70;;;28.67;;
30617;SDS011;17384;51.214;9.202;2022-12-18T12:08:05;52.38;;;23.73;;
30617;SDS011;17384;51.214;9.202;2022-12-18T12:10:52;41.97;;;20.27;;
30617;SDS011;17384;51.214;9.202;2022-12-18T12:16:29;68.50;;;21.15;;
30617;SDS011;17384;51.214;9.202;2022-12-18T12:19:25;45.15;;;19.38;;
30617;SDS011;17384;51.214;9.202;2022-12-18T12:27:10;31.48;;;16.48;;
30617;SDS011;17384;51.214;9.202;2022-12-18T12:35:22;34.65;;;17.60;;
30617;SDS011;17384;51.214;9.202;2022-12-18T12:40:26;39.17;;;17.88;;
30617;SDS011;17384;51.214;9.202;2022-12-18T12:43:43;36.13;;;18.02;;
30617;SDS011;17384;51.214;9.202;2022-12-18T12:45:55;45.72;;;16.77;;
30617;SDS011;17384;51.214;9.202;2022-12-18T12:53:41;39.70;;;16.48;;
30617;SDS011;17384;51.214;9.202;2022-12-18T12:56:11;34.05;;;17.15;;
30617;SDS011;17384;51.214;9.202;2022-12-18T13:13:15;31.13;;;15.60;;
30617;SDS011;17384;51.214;9.202;2022-12-18T13:20:39;36.35;;;16.33;;
30617;SDS011;17384;51.214;9.202;2022-12-18T13:23:28;34.70;;;15.80;;
30617;SDS011;17384;51.214;9.202;2022-12-18T13:25:59;35.47;;;16.67;;
30617;SDS011;17384;51.214;9.202;2022-12-18T13:31:11;37.83;;;17.90;;
30617;SDS011;17384;51.214;9.202;2022-12-18T13:33:39;37.53;;;16.25;;
30617;SDS011;17384;51.214;9.202;2022-12-18T13:36:16;38.88;;;16.17;;
30617;SDS011;17384;51.214;9.202;2022-12-18T13:39:08;31.83;;;15.98;;
30617;SDS011;17384;51.214;9.202;2022-12-18T13:41:35;34.72;;;15.98;;
30617;SDS011;17384;51.214;9.202;2022-12-18T13:44:11;37.75;;;17.85;;
30617;SDS011;17384;51.214;9.202;2022-12-18T13:46:56;36.85;;;17.13;;
30617;SDS011;17384;51.214;9.202;2022-12-18T13:49:24;36.30;;;16.35;;
30617;SDS011;17384;51.214;9.202;2022-12-18T13:51:55;34.75;;;17.13;;
30617;SDS011;17384;51.214;9.202;2022-12-18T13:57:01;37.10;;;16.58;;
30617;SDS011;17384;51.214;9.202;2022-12-18T13:59:37;32.67;;;15.75;;
30617;SDS011;17384;51.214;9.202;2022-12-18T14:04:59;38.08;;;17.50;;
30617;SDS011;17384;51.214;9.202;2022-12-18T14:07:26;35.50;;;16.75;;
30617;SDS011;17384;51.214;9.202;2022-12-18T14:09:55;37.47;;;16.95;;
30617;SDS011;17384;51.214;9.202;2022-12-18T14:12:25;33.05;;;15.10;;
30617;SDS011;17384;51.214;9.202;2022-12-18T14:15:20;41.70;;;18.25;;
30617;SDS011;17384;51.214;9.202;2022-12-18T14:17:58;35.00;;;14.60;;
30617;SDS011;17384;51.214;9.202;2022-12-18T14:20:28;34.17;;;14.77;;
30617;SDS011;17384;51.214;9.202;2022-12-18T14:22:57;32.72;;;15.45;;
30617;SDS011;17384;51.214;9.202;2022-12-18T14:25:24;36.35;;;14.38;;
30617;SDS011;17384;51.214;9.202;2022-12-18T14:30:36;37.20;;;16.75;;
30617;SDS011;17384;51.214;9.202;2022-12-18T14:33:16;39.63;;;17.38;;
30617;SDS011;17384;51.214;9.202;2022-12-18T14:35:56;34.45;;;16.80;;
30617;SDS011;17384;51.214;9.202;2022-12-18T14:38:36;42.45;;;18.98;;
30617;SDS011;17384;51.214;9.202;2022-12-18T14:41:10;42.03;;;18.48;;
30617;SDS011;17384;51.214;9.202;2022-12-18T14:43:43;37.50;;;18.65;;
30617;SDS011;17384;51.214;9.202;2022-12-18T14:48:55;44.75;;;21.00;;
30617;SDS011;17384;51.214;9.202;2022-12-18T14:51:23;49.33;;;21.27;;
30617;SDS011;17384;51.214;9.202;2022-12-18T14:54:12;44.78;;;19.80;;
30617;SDS011;17384;51.214;9.202;2022-12-18T14:56:51;57.40;;;24.30;;
30617;SDS011;17384;51.214;9.202;2022-12-18T14:59:39;40.55;;;20.10;;
30617;SDS011;17384;51.214;9.202;2022-12-18T15:02:25;46.88;;;22.33;;
30617;SDS011;17384;51.214;9.202;2022-12-18T15:05:16;48.65;;;22.27;;
30617;SDS011;17384;51.214;9.202;2022-12-18T15:07:45;57.17;;;21.88;;
30617;SDS011;17384;51.214;9.202;2022-12-18T15:10:17;48.28;;;22.48;;
30617;SDS011;17384;51.214;9.202;2022-12-18T15:12:46;55.90;;;24.08;;
30617;SDS011;17384;51.214;9.202;2022-12-18T15:15:46;51.05;;;21.85;;
30617;SDS011;17384;51.214;9.202;2022-12-18T15:18:12;49.07;;;23.80;;
30617;SDS011;17384;51.214;9.202;2022-12-18T15:20:48;51.42;;;21.30;;
30617;SDS011;17384;51.214;9.202;2022-12-18T15:23:36;46.30;;;20.83;;
30617;SDS011;17384;51.214;9.202;2022-12-18T15:26:15;53.38;;;20.33;;
30617;SDS011;17384;51.214;9.202;2022-12-18T15:28:52;50.25;;;22.15;;
30617;SDS011;17384;51.214;9.202;2022-12-18T15:31:31;52.50;;;21.50;;
30617;SDS011;17384;51.214;9.202;2022-12-18T15:34:01;47.42;;;21.83;;
30617;SDS011;17384;51.214;9.202;2022-12-18T15:36:56;51.58;;;20.20;;
30617;SDS011;17384;51.214;9.202;2022-12-18T15:39:22;47.45;;;21.27;;
30617;SDS011;17384;51.214;9.202;2022-12-18T15:41:51;49.60;;;22.05;;
30617;SDS011;17384;51.214;9.202;2022-12-18T15:47:57;47.10;;;21.77;;
30617;SDS011;17384;51.214;9.202;2022-12-18T15:50:26;48.25;;;21.48;;
30617;SDS011;17384;51.214;9.202;2022-12-18T15:56:18;49.53;;;20.67;;
30617;SDS011;17384;51.214;9.202;2022-12-18T16:02:26;48.42;;;22.30;;
30617;SDS011;17384;51.214;9.202;2022-12-18T16:25:45;59.65;;;24.52;;
30617;SDS011;17384;51.214;9.202;2022-12-18T16:28:39;55.22;;;23.80;;
30617;SDS011;17384;51.214;9.202;2022-12-18T16:31:41;61.35;;;27.02;;
30617;SDS011;17384;51.214;9.202;2022-12-18T16:36:57;59.67;;;25.23;;
30617;SDS011;17384;51.214;9.202;2022-12-18T16:39:25;66.50;;;26.27;;
30617;SDS011;17384;51.214;9.202;2022-12-18T16:41:51;60.75;;;27.73;;
30617;SDS011;17384;51.214;9.202;2022-12-18T16:44:17;65.13;;;26.50;;
30617;SDS011;17384;51.214;9.202;2022-12-18T16:46:43;61.88;;;25.73;;
30617;SDS011;17384;51.214;9.202;2022-12-18T16:49:16;59.60;;;23.83;;
30617;SDS011;17384;51.214;9.202;2022-12-18T16:51:43;67.85;;;25.67;;
30617;SDS011;17384;51.214;9.202;2022-12-18T16:54:10;59.17;;;23.65;;
30617;SDS011;17384;51.214;9.202;2022-12-18T16:56:36;63.83;;;25.65;;
30617;SDS011;17384;51.214;9.202;2022-12-18T16:59:02;71.93;;;26.77;;
30617;SDS011;17384;51.214;9.202;2022-12-18T17:01:28;61.30;;;24.42;;